Time;durP1;ratioP1;P1;durP2;ratioP2;P2;SDS_P1;SDS_P2;PMS_P1;PMS_P2;Temp;Humidity;BMP_temperature;BMP_pressure;BME280_temperature;BME280_humidity;BME280_pressure;Samples;Min_cycle;Max_cycle;Signal;HPM_P1;HPM_P2
2022/06/24 00:01:55;;;;;;;11.07;7.35;;;22.90;99.90;;;;;;5090755;27;42222;-75
2022/06/24 00:04:26;;;;;;;13.85;8.10;;;22.30;99.90;;;;;;5054423;27;39639;-75
2022/06/24 00:06:52;;;;;;;12.43;8.90;;;21.90;99.90;;;;;;5052676;27;38535;-76
2022/06/24 00:09:19;;;;;;;11.55;8.57;;;21.50;99.90;;;;;;5034728;28;40184;-76
2022/06/24 00:11:59;;;;;;;9.90;8.90;;;21.30;99.90;;;;;;5045655;27;38792;-76
2022/06/24 00:14:25;;;;;;;11.98;8.98;;;21.30;99.90;;;;;;5058639;27;36979;-76
2022/06/24 00:17:09;;;;;;;11.98;9.25;;;21.20;99.90;;;;;;5064374;28;38211;-75
2022/06/24 00:19:58;;;;;;;12.13;9.45;;;21.20;99.90;;;;;;5070090;27;47291;-76
2022/06/24 00:22:26;;;;;;;11.18;9.77;;;21.10;99.90;;;;;;5089139;27;39441;-76
2022/06/24 00:25:22;;;;;;;11.75;10.45;;;21.10;99.90;;;;;;5056191;28;38938;-76
2022/06/24 00:28:11;;;;;;;12.57;11.02;;;21.10;99.90;;;;;;5048567;27;48593;-75
2022/06/24 00:30:52;;;;;;;14.73;13.15;;;21.10;99.90;;;;;;5050744;28;47568;-76
2022/06/24 00:33:23;;;;;;;17.23;13.32;;;21.10;99.90;;;;;;5057334;27;38798;-76
2022/06/24 00:35:52;;;;;;;17.40;13.43;;;21.10;99.90;;;;;;5055409;27;39262;-76
2022/06/24 00:38:22;;;;;;;15.95;14.23;;;21.00;99.90;;;;;;5057622;27;38381;-75
2022/06/24 00:40:54;;;;;;;18.20;15.90;;;20.90;99.90;;;;;;5067555;27;37050;-75
2022/06/24 00:43:31;;;;;;;;;;;20.70;99.90;;;;;;5070201;27;38771;-76
2022/06/24 00:46:13;;;;;;;19.35;17.25;;;20.50;99.90;;;;;;5055023;27;38526;-76
2022/06/24 00:48:45;;;;;;;23.05;18.30;;;20.50;99.90;;;;;;5052329;28;48819;-76
2022/06/24 00:51:11;;;;;;;25.10;21.33;;;20.50;99.90;;;;;;5051871;28;37751;-76
2022/06/24 00:54:05;;;;;;;27.23;22.58;;;20.50;99.90;;;;;;5064146;27;38204;-76
2022/06/24 00:56:31;;;;;;;35.50;27.77;;;20.50;99.90;;;;;;5054168;27;48393;-76
2022/06/24 00:59:04;;;;;;;30.83;24.42;;;20.50;99.90;;;;;;5055025;28;37351;-75
2022/06/24 01:01:31;;;;;;;26.48;23.73;;;20.50;99.90;;;;;;5054373;28;41046;-75
2022/06/24 01:03:59;;;;;;;32.80;26.70;;;20.40;99.90;;;;;;5052357;28;37071;-74
2022/06/24 01:06:26;;;;;;;31.50;28.13;;;20.30;99.90;;;;;;5090973;27;37472;-74
2022/06/24 01:08:53;;;;;;;35.40;29.80;;;20.20;99.90;;;;;;5055070;28;36645;-73
2022/06/24 01:11:30;;;;;;;35.75;28.17;;;20.20;99.90;;;;;;5066702;28;38365;-74
2022/06/24 01:13:56;;;;;;;37.88;32.70;;;20.20;99.90;;;;;;5051499;27;40261;-74
2022/06/24 01:16:24;;;;;;;45.50;34.65;;;20.10;99.90;;;;;;5069562;27;38223;-74
2022/06/24 01:19:03;;;;;;;43.45;35.83;;;20.10;99.90;;;;;;5030642;28;38353;-76
2022/06/24 01:21:36;;;;;;;47.88;38.15;;;19.90;99.90;;;;;;5046171;27;46851;-75
2022/06/24 01:24:15;;;;;;;54.65;43.10;;;19.90;99.90;;;;;;5054019;27;38795;-75
2022/06/24 01:26:46;;;;;;;44.17;36.60;;;19.90;99.90;;;;;;5069839;28;39269;-74
2022/06/24 01:29:14;;;;;;;49.50;36.03;;;19.90;99.90;;;;;;5051275;28;38460;-74
2022/06/24 01:31:48;;;;;;;48.35;39.13;;;19.90;99.90;;;;;;5067309;28;41041;-74
2022/06/24 01:34:16;;;;;;;45.45;37.78;;;19.90;99.90;;;;;;5056670;28;40231;-74
2022/06/24 01:36:42;;;;;;;50.80;41.45;;;19.80;99.90;;;;;;5058324;28;39729;-75
2022/06/24 01:39:08;;;;;;;52.85;42.45;;;19.90;99.90;;;;;;5049493;28;38018;-74
2022/06/24 01:41:35;;;;;;;59.80;45.40;;;19.90;99.90;;;;;;5058132;27;39753;-74
2022/06/24 01:44:01;;;;;;;63.00;46.42;;;19.70;99.90;;;;;;5057468;28;41240;-74
2022/06/24 01:46:28;;;;;;;55.42;44.50;;;19.70;99.90;;;;;;5063331;28;47178;-75
2022/06/24 01:48:54;;;;;;;61.00;46.20;;;19.70;99.90;;;;;;5045512;27;38341;-74
2022/06/24 01:51:23;;;;;;;50.25;40.05;;;19.80;99.90;;;;;;5040627;28;38223;-74
2022/06/24 01:53:50;;;;;;;52.35;42.13;;;19.70;99.90;;;;;;5051795;27;39767;-74
2022/06/24 01:56:17;;;;;;;49.47;40.58;;;19.70;99.90;;;;;;5046163;28;38111;-74
2022/06/24 01:58:44;;;;;;;50.78;40.42;;;19.70;99.90;;;;;;5045962;28;38191;-74
2022/06/24 02:01:10;;;;;;;56.55;42.83;;;19.70;99.90;;;;;;5059178;27;39138;-74
2022/06/24 02:03:40;;;;;;;55.10;41.28;;;19.80;99.90;;;;;;5052684;27;39949;-74
2022/06/24 02:06:08;;;;;;;51.05;42.10;;;19.60;99.90;;;;;;5075685;28;37952;-75
2022/06/24 02:08:35;;;;;;;59.85;45.33;;;19.60;99.90;;;;;;5056463;28;37776;-75
2022/06/24 02:13:48;;;;;;;48.85;41.50;;;19.60;99.90;;;;;;5065819;27;39438;-74
2022/06/24 02:16:15;;;;;;;47.70;40.72;;;19.60;99.90;;;;;;5064495;27;38386;-74
2022/06/24 02:18:41;;;;;;;57.95;46.25;;;19.60;99.90;;;;;;5063758;28;39261;-74
2022/06/24 02:21:08;;;;;;;48.80;41.55;;;19.50;99.90;;;;;;5063150;28;39078;-75
2022/06/24 02:23:34;;;;;;;53.05;41.67;;;19.50;99.90;;;;;;5046552;28;39225;-74
2022/06/24 02:26:00;;;;;;;54.20;43.08;;;19.60;99.90;;;;;;5046446;28;40559;-74
2022/06/24 02:28:26;;;;;;;54.28;43.72;;;19.60;99.90;;;;;;5065721;27;47698;-75
2022/06/24 02:30:54;;;;;;;72.25;50.80;;;19.50;99.90;;;;;;5061086;28;39435;-75
2022/06/24 02:33:21;;;;;;;66.63;48.78;;;19.50;99.90;;;;;;5095701;27;39999;-75
2022/06/24 02:35:47;;;;;;;64.18;47.42;;;19.50;99.90;;;;;;5064925;27;38509;-74
2022/06/24 02:38:13;;;;;;;59.53;45.00;;;19.50;99.90;;;;;;5062137;28;38645;-75
2022/06/24 02:40:45;;;;;;;53.10;42.58;;;19.60;99.90;;;;;;5064967;28;39114;-75
2022/06/24 02:43:26;;;;;;;51.03;43.45;;;19.50;99.90;;;;;;5064266;28;39662;-75
2022/06/24 02:45:58;;;;;;;50.78;42.70;;;19.50;99.90;;;;;;5064618;28;39298;-74
2022/06/24 02:48:24;;;;;;;53.17;45.00;;;19.60;99.90;;;;;;5058737;27;37617;-74
2022/06/24 02:50:55;;;;;;;56.17;45.50;;;19.60;99.90;;;;;;5039711;28;38500;-74
2022/06/24 02:53:23;;;;;;;58.00;44.45;;;19.60;99.90;;;;;;5051854;28;39225;-74
2022/06/24 02:55:54;;;;;;;52.63;43.90;;;19.60;99.90;;;;;;5061207;28;39905;-74
2022/06/24 02:58:21;;;;;;;53.88;43.50;;;19.50;99.90;;;;;;5043160;28;38687;-74
2022/06/24 03:00:47;;;;;;;62.97;48.13;;;19.50;99.90;;;;;;5056665;28;38897;-74
2022/06/24 03:03:15;;;;;;;72.03;52.80;;;19.50;99.90;;;;;;5064110;27;38704;-75
2022/06/24 03:05:43;;;;;;;92.90;62.78;;;19.50;99.90;;;;;;5064685;27;38200;-74
2022/06/24 03:08:11;;;;;;;87.05;60.95;;;19.50;99.90;;;;;;5073717;27;39324;-74
2022/06/24 03:10:38;;;;;;;93.63;63.95;;;19.50;99.90;;;;;;5062318;28;40793;-74
2022/06/24 03:13:04;;;;;;;81.57;60.40;;;19.40;99.90;;;;;;5064797;27;40431;-75
2022/06/24 03:15:30;;;;;;;93.50;65.82;;;19.40;99.90;;;;;;5061188;28;38922;-75
2022/06/24 03:17:57;;;;;;;69.80;49.78;;;19.30;99.90;;;;;;5048593;28;37588;-75
2022/06/24 03:20:24;;;;;;;57.75;43.28;;;19.10;99.90;;;;;;5045192;28;39691;-75
2022/06/24 03:22:50;;;;;;;47.20;37.78;;;19.00;99.90;;;;;;5054616;28;38436;-75
2022/06/24 03:25:16;;;;;;;46.33;37.13;;;19.00;99.90;;;;;;5052936;28;39147;-75
2022/06/24 03:27:43;;;;;;;40.60;31.17;;;18.90;99.90;;;;;;5056480;28;38755;-75
2022/06/24 03:30:11;;;;;;;33.88;25.83;;;18.80;99.90;;;;;;5052833;28;38742;-75
2022/06/24 03:32:38;;;;;;;27.25;23.70;;;18.80;99.90;;;;;;5063520;28;39160;-75
2022/06/24 03:35:06;;;;;;;30.27;23.77;;;18.70;99.90;;;;;;5055125;28;38491;-75
2022/06/24 03:37:32;;;;;;;26.08;23.27;;;18.60;99.90;;;;;;5051661;28;37271;-74
2022/06/24 03:39:59;;;;;;;28.30;24.27;;;18.60;99.90;;;;;;5059810;28;39528;-75
2022/06/24 03:42:26;;;;;;;26.08;23.30;;;18.60;99.90;;;;;;5044777;28;38751;-75
2022/06/24 03:44:52;;;;;;;28.67;22.13;;;18.60;99.90;;;;;;5040055;28;40032;-75
2022/06/24 03:47:18;;;;;;;23.05;20.65;;;18.60;99.90;;;;;;5043348;28;38471;-75
2022/06/24 03:49:45;;;;;;;23.92;19.50;;;18.60;99.90;;;;;;5055464;27;39841;-75
2022/06/24 03:52:11;;;;;;;24.65;20.45;;;18.60;99.90;;;;;;5057621;27;38910;-75
2022/06/24 03:54:38;;;;;;;26.73;21.55;;;18.70;99.90;;;;;;5064769;27;39298;-75
2022/06/24 03:57:05;;;;;;;23.27;19.55;;;18.70;99.90;;;;;;5063718;27;37478;-75
2022/06/24 03:59:31;;;;;;;17.30;15.50;;;18.80;99.90;;;;;;5060518;28;40424;-74
2022/06/24 04:01:58;;;;;;;19.45;16.63;;;18.90;99.90;;;;;;5061387;28;39384;-74
2022/06/24 04:04:24;;;;;;;18.58;15.02;;;18.70;99.90;;;;;;5063365;28;38696;-75
2022/06/24 04:06:50;;;;;;;16.55;14.85;;;18.70;99.90;;;;;;5061351;28;38435;-74
2022/06/24 04:09:16;;;;;;;17.95;14.75;;;18.70;99.90;;;;;;5060935;27;39087;-74
2022/06/24 04:11:42;;;;;;;18.33;15.48;;;18.70;99.90;;;;;;5064566;27;39645;-74
2022/06/24 04:14:09;;;;;;;17.75;15.82;;;18.70;99.90;;;;;;5064211;27;38425;-74
2022/06/24 04:16:35;;;;;;;18.73;16.73;;;18.70;99.90;;;;;;5075323;27;39410;-75
2022/06/24 04:19:01;;;;;;;18.58;16.70;;;18.70;99.90;;;;;;5062061;27;40380;-74
2022/06/24 04:21:29;;;;;;;20.45;17.77;;;18.80;99.90;;;;;;5050204;28;46964;-74
2022/06/24 04:23:56;;;;;;;18.13;16.08;;;18.80;99.90;;;;;;5058882;28;39642;-74
2022/06/24 04:26:22;;;;;;;19.67;17.30;;;18.80;99.90;;;;;;5060427;27;38141;-75
2022/06/24 04:28:50;;;;;;;20.90;18.63;;;18.80;99.90;;;;;;5059909;27;38751;-74
2022/06/24 04:31:16;;;;;;;20.85;16.85;;;18.80;99.90;;;;;;5038662;28;39355;-75
2022/06/24 04:33:42;;;;;;;18.48;16.33;;;18.80;99.90;;;;;;5052285;28;41041;-74
2022/06/24 04:36:14;;;;;;;20.15;18.00;;;18.80;99.90;;;;;;5063244;28;37306;-74
2022/06/24 04:38:41;;;;;;;;;;;18.80;99.90;;;;;;5060782;27;40785;-74
2022/06/24 04:41:16;;;;;;;20.77;18.58;;;18.80;99.90;;;;;;5050750;28;39703;-74
2022/06/24 04:43:43;;;;;;;22.27;18.77;;;18.70;99.90;;;;;;5061981;27;39053;-75
2022/06/24 04:46:09;;;;;;;19.50;17.02;;;18.80;99.90;;;;;;5068935;27;38143;-74
2022/06/24 04:48:36;;;;;;;21.50;18.58;;;18.80;99.90;;;;;;5057837;28;40435;-74
2022/06/24 04:51:03;;;;;;;20.05;17.77;;;18.80;99.90;;;;;;5060652;28;39587;-74
2022/06/24 04:53:30;;;;;;;27.70;21.35;;;18.80;99.90;;;;;;5063040;27;39568;-75
2022/06/24 04:55:57;;;;;;;21.83;19.63;;;18.70;99.90;;;;;;5062742;27;37618;-74
2022/06/24 04:58:24;;;;;;;21.55;19.25;;;18.80;99.90;;;;;;5056834;27;39608;-74
2022/06/24 05:00:50;;;;;;;20.33;17.55;;;18.80;99.90;;;;;;5058963;27;37872;-74
2022/06/24 05:03:16;;;;;;;18.55;16.58;;;18.80;99.90;;;;;;5045081;28;40199;-75
2022/06/24 05:05:42;;;;;;;21.88;18.60;;;18.80;99.90;;;;;;5043015;28;37366;-74
2022/06/24 05:08:09;;;;;;;20.48;18.45;;;18.80;99.90;;;;;;5053797;27;38655;-74
2022/06/24 05:10:35;;;;;;;22.00;19.30;;;18.80;99.90;;;;;;5058485;27;38824;-74
2022/06/24 05:13:01;;;;;;;23.83;20.38;;;18.80;99.90;;;;;;5066806;28;38877;-74
2022/06/24 05:15:28;;;;;;;22.73;19.33;;;18.70;99.90;;;;;;5065470;27;37430;-74
2022/06/24 05:17:54;;;;;;;26.77;22.77;;;18.70;99.90;;;;;;5067533;27;39898;-74
2022/06/24 05:20:20;;;;;;;23.48;20.48;;;18.70;99.90;;;;;;5062140;28;39921;-75
2022/06/24 05:22:46;;;;;;;26.65;21.67;;;18.70;99.90;;;;;;5067588;27;38539;-75
2022/06/24 05:25:12;;;;;;;20.83;18.55;;;18.60;99.90;;;;;;5062745;28;39202;-76
2022/06/24 05:27:38;;;;;;;20.75;18.10;;;18.60;99.90;;;;;;5060019;27;39140;-75
2022/06/24 05:30:05;;;;;;;17.60;15.80;;;18.50;99.90;;;;;;5061928;28;40354;-75
2022/06/24 05:32:31;;;;;;;22.77;16.88;;;18.50;99.90;;;;;;5058804;28;38682;-75
2022/06/24 05:34:57;;;;;;;17.95;15.93;;;18.40;99.90;;;;;;5046674;28;37621;-74
2022/06/24 05:37:23;;;;;;;15.60;13.95;;;18.40;99.90;;;;;;5078913;27;40774;-75
2022/06/24 05:39:50;;;;;;;15.80;14.07;;;18.40;99.90;;;;;;5055529;28;37830;-75
2022/06/24 05:42:16;;;;;;;13.05;10.95;;;18.30;99.90;;;;;;5063785;27;38529;-75
2022/06/24 05:44:42;;;;;;;12.00;9.07;;;18.40;99.90;;;;;;5052307;28;37606;-75
2022/06/24 05:47:08;;;;;;;10.55;7.82;;;18.30;99.90;;;;;;5041688;28;39694;-75
2022/06/24 05:49:34;;;;;;;10.15;8.00;;;18.20;99.90;;;;;;5070109;28;40894;-75
2022/06/24 05:52:00;;;;;;;7.80;7.00;;;18.20;99.90;;;;;;5064775;27;38985;-74
2022/06/24 05:57:11;;;;;;;6.93;5.65;;;18.20;99.90;;;;;;5065745;27;39492;-75
2022/06/24 05:59:37;;;;;;;5.93;5.32;;;18.20;99.90;;;;;;5065794;27;39594;-75
2022/06/24 06:02:06;;;;;;;4.45;4.03;;;18.10;99.90;;;;;;5046011;28;38787;-75
2022/06/24 06:04:33;;;;;;;8.25;5.15;;;18.30;99.90;;;;;;5048383;28;38213;-74
2022/06/24 06:06:59;;;;;;;6.18;4.75;;;18.80;99.90;;;;;;5046521;28;39735;-75
2022/06/24 06:09:25;;;;;;;8.50;4.82;;;18.80;99.90;;;;;;5046511;28;39726;-75
2022/06/24 06:11:51;;;;;;;6.53;4.90;;;18.70;99.90;;;;;;5041991;28;39019;-75
2022/06/24 06:14:18;;;;;;;7.70;4.15;;;18.70;99.90;;;;;;5059849;28;38203;-75
2022/06/24 06:16:47;;;;;;;8.60;5.80;;;18.60;99.90;;;;;;5058880;28;39740;-76
2022/06/24 06:19:13;;;;;;;6.55;4.70;;;18.60;99.90;;;;;;5068876;27;40878;-74
2022/06/24 06:21:39;;;;;;;7.65;4.47;;;18.60;99.90;;;;;;5044845;28;38400;-75
2022/06/24 06:24:06;;;;;;;5.68;4.47;;;18.50;99.90;;;;;;5041938;28;37899;-75
2022/06/24 06:26:32;;;;;;;5.05;4.40;;;18.50;99.90;;;;;;5046996;28;40367;-76
2022/06/24 06:28:58;;;;;;;5.03;4.53;;;18.50;99.90;;;;;;5041621;28;39042;-75
2022/06/24 06:31:24;;;;;;;5.65;4.18;;;18.50;99.90;;;;;;5045873;28;38500;-76
2022/06/24 06:33:50;;;;;;;9.23;5.03;;;18.50;99.90;;;;;;5044212;28;38571;-74
2022/06/24 06:36:16;;;;;;;5.78;4.65;;;18.50;99.90;;;;;;5041772;28;38705;-75
2022/06/24 06:38:42;;;;;;;6.63;5.75;;;18.50;99.90;;;;;;5046785;28;38973;-75
2022/06/24 06:41:08;;;;;;;7.97;5.85;;;18.50;99.90;;;;;;5063127;27;38505;-75
2022/06/24 06:43:34;;;;;;;9.07;6.38;;;18.60;99.90;;;;;;5063052;28;38718;-75
2022/06/24 06:46:01;;;;;;;11.07;6.88;;;18.60;99.90;;;;;;5079882;27;42543;-75
2022/06/24 06:48:27;;;;;;;8.63;6.68;;;18.60;99.90;;;;;;5063097;28;46175;-75
2022/06/24 06:50:58;;;;;;;12.93;8.85;;;18.70;99.90;;;;;;5087671;28;39114;-75
2022/06/24 06:53:25;;;;;;;10.63;9.52;;;18.80;99.90;;;;;;5062563;28;37747;-75
2022/06/24 06:55:52;;;;;;;13.50;10.25;;;18.90;99.90;;;;;;5060574;28;39294;-75
2022/06/24 06:58:19;;;;;;;14.70;11.40;;;18.90;99.90;;;;;;5064782;27;38768;-75
2022/06/24 07:00:45;;;;;;;15.68;11.25;;;19.00;99.90;;;;;;5066115;27;39935;-75
2022/06/24 07:03:12;;;;;;;14.55;12.25;;;19.00;99.90;;;;;;5068535;27;37790;-74
2022/06/24 07:05:38;;;;;;;19.40;13.50;;;19.00;99.90;;;;;;5082932;27;40674;-75
2022/06/24 07:08:05;;;;;;;13.43;11.98;;;19.10;99.90;;;;;;5084095;27;40247;-75
2022/06/24 07:10:31;;;;;;;13.27;11.88;;;19.00;99.90;;;;;;5081553;27;38133;-75
2022/06/24 07:12:57;;;;;;;16.27;9.95;;;19.00;99.90;;;;;;5056996;28;37914;-76
2022/06/24 07:15:23;;;;;;;11.15;9.88;;;19.10;99.90;;;;;;5062483;28;40399;-75
2022/06/24 07:17:49;;;;;;;14.00;11.10;;;19.10;99.90;;;;;;5059126;28;40386;-75
2022/06/24 07:20:15;;;;;;;12.57;10.55;;;19.20;99.90;;;;;;5062114;27;38325;-78
2022/06/24 07:22:42;;;;;;;14.52;11.43;;;19.30;99.90;;;;;;5065937;27;38356;-80
2022/06/24 07:25:08;;;;;;;14.43;12.05;;;19.40;99.90;;;;;;5064225;28;40109;-80
2022/06/24 07:27:35;;;;;;;14.68;11.60;;;19.40;99.90;;;;;;5064065;28;39006;-80
2022/06/24 07:30:03;;;;;;;15.77;12.90;;;19.40;99.90;;;;;;5064312;28;38668;-80
2022/06/24 07:32:30;;;;;;;16.38;13.10;;;19.40;99.90;;;;;;5031002;28;47265;-80
2022/06/24 07:34:56;;;;;;;18.08;13.60;;;19.60;99.90;;;;;;5053698;28;40031;-79
2022/06/24 07:37:22;;;;;;;16.95;12.88;;;19.80;99.90;;;;;;5062199;27;39434;-79
2022/06/24 07:39:48;;;;;;;17.60;12.93;;;19.80;99.90;;;;;;5054200;28;40177;-79
2022/06/24 07:42:15;;;;;;;16.35;13.15;;;19.90;99.90;;;;;;5061388;27;38164;-77
2022/06/24 07:44:43;;;;;;;16.40;12.95;;;19.90;99.90;;;;;;5064442;27;38653;-76
2022/06/24 07:47:10;;;;;;;20.08;14.50;;;19.90;99.90;;;;;;5061312;27;37986;-79
2022/06/24 07:49:36;;;;;;;18.17;14.70;;;19.90;99.90;;;;;;5063705;28;39541;-79
2022/06/24 07:52:04;;;;;;;16.30;14.45;;;20.10;99.90;;;;;;5065530;27;37281;-77
2022/06/24 07:54:31;;;;;;;15.40;13.45;;;20.20;99.90;;;;;;5062124;28;40252;-77
2022/06/24 07:56:57;;;;;;;16.65;14.70;;;20.60;99.90;;;;;;5060594;28;38015;-77
2022/06/24 07:59:34;;;;;;;18.42;16.20;;;20.80;99.90;;;;;;5081981;27;38351;-77
2022/06/24 08:02:03;;;;;;;17.52;15.70;;;21.00;99.90;;;;;;5048697;28;37799;-77
2022/06/24 08:04:29;;;;;;;20.02;17.77;;;21.10;99.90;;;;;;5063434;28;47094;-79
2022/06/24 08:06:56;;;;;;;21.45;19.08;;;21.00;99.90;;;;;;5074137;28;37881;-79
2022/06/24 08:09:30;;;;;;;23.63;18.88;;;21.20;99.90;;;;;;5089585;27;39204;-78
2022/06/24 08:11:56;;;;;;;21.08;16.65;;;21.30;99.90;;;;;;5057787;28;38006;-79
2022/06/24 08:14:22;;;;;;;24.55;17.60;;;21.40;99.90;;;;;;5046274;28;37567;-79
2022/06/24 08:16:48;;;;;;;21.30;17.65;;;21.60;99.90;;;;;;5052613;28;38968;-78
2022/06/24 08:19:15;;;;;;;21.35;16.92;;;21.50;99.90;;;;;;5062185;28;37528;-78
2022/06/24 08:21:42;;;;;;;20.95;17.23;;;21.30;99.90;;;;;;5038851;28;38195;-78
2022/06/24 08:24:09;;;;;;;21.98;18.98;;;21.10;99.90;;;;;;5045637;28;38969;-78
2022/06/24 08:26:35;;;;;;;23.52;18.73;;;21.10;99.90;;;;;;5043568;28;39468;-78
2022/06/24 08:29:01;;;;;;;19.65;17.02;;;21.00;99.90;;;;;;5044890;28;38558;-78
2022/06/24 08:31:27;;;;;;;19.88;15.35;;;21.10;99.90;;;;;;5040306;28;47399;-76
2022/06/24 08:33:54;;;;;;;19.23;16.70;;;21.00;99.90;;;;;;5045281;28;38874;-76
2022/06/24 08:36:24;;;;;;;19.77;16.55;;;21.00;99.90;;;;;;5061222;27;38194;-77
2022/06/24 08:38:50;;;;;;;17.02;14.02;;;21.00;99.90;;;;;;5077349;27;37614;-77
2022/06/24 08:41:21;;;;;;;19.38;15.30;;;21.20;99.90;;;;;;5045364;28;38178;-76
2022/06/24 08:43:49;;;;;;;22.20;18.50;;;21.40;99.90;;;;;;5041882;28;38361;-76
2022/06/24 08:46:16;;;;;;;21.92;18.55;;;21.40;99.90;;;;;;5046460;28;37884;-76
2022/06/24 08:48:43;;;;;;;19.85;16.90;;;21.40;99.90;;;;;;5056472;28;38421;-76
2022/06/24 08:51:12;;;;;;;21.58;17.77;;;21.40;99.90;;;;;;5041521;28;37648;-76
2022/06/24 08:53:39;;;;;;;25.98;19.58;;;21.80;99.90;;;;;;5043385;28;39030;-76
2022/06/24 08:56:08;;;;;;;25.88;21.15;;;22.10;99.90;;;;;;5041728;28;39031;-77
2022/06/24 08:58:38;;;;;;;26.98;21.13;;;22.10;99.90;;;;;;5040625;28;38312;-76
2022/06/24 09:01:04;;;;;;;25.45;21.55;;;22.20;99.90;;;;;;5061959;28;38967;-77
2022/06/24 09:03:30;;;;;;;31.60;23.17;;;22.20;99.90;;;;;;5045419;28;37639;-76
2022/06/24 09:05:56;;;;;;;31.63;22.38;;;22.40;99.90;;;;;;5042081;28;39210;-77
2022/06/24 09:08:31;;;;;;;23.67;19.42;;;22.90;99.90;;;;;;5050244;28;38293;-77
2022/06/24 09:11:09;;;;;;;26.25;20.08;;;23.00;99.90;;;;;;5057056;28;37544;-77
2022/06/24 09:13:50;;;;;;;25.45;19.65;;;23.10;99.90;;;;;;5043365;27;47255;-77
2022/06/24 09:16:18;;;;;;;23.30;17.80;;;23.20;99.90;;;;;;5034954;28;39655;-78
2022/06/24 09:18:55;;;;;;;21.92;16.77;;;23.20;99.90;;;;;;5043952;28;37634;-77
2022/06/24 09:21:30;;;;;;;23.40;16.73;;;23.30;99.90;;;;;;5044040;28;37802;-77
2022/06/24 09:23:59;;;;;;;23.25;16.15;;;23.20;99.90;;;;;;5051301;28;37941;-77
2022/06/24 09:26:30;;;;;;;21.65;15.60;;;23.30;99.90;;;;;;5053155;28;38872;-77
2022/06/24 09:28:56;;;;;;;19.45;15.52;;;23.30;99.90;;;;;;5048818;28;38692;-77
2022/06/24 09:31:27;;;;;;;19.00;15.27;;;23.30;99.90;;;;;;5051165;28;37406;-77
2022/06/24 09:33:54;;;;;;;27.38;18.85;;;23.50;99.90;;;;;;5060539;27;39687;-76
2022/06/24 09:36:25;;;;;;;24.60;18.23;;;23.40;99.90;;;;;;5059386;28;38955;-77
2022/06/24 09:39:12;;;;;;;19.95;14.07;;;23.50;99.90;;;;;;5040981;28;38480;-77
2022/06/24 09:41:50;;;;;;;20.67;15.88;;;23.40;99.90;;;;;;5056750;28;47087;-77
2022/06/24 09:44:17;;;;;;;20.88;15.20;;;23.60;99.90;;;;;;5056216;28;38896;-76
2022/06/24 09:46:44;;;;;;;20.50;15.98;;;23.80;99.90;;;;;;5057144;28;39619;-75
2022/06/24 09:49:15;;;;;;;19.23;15.20;;;24.30;99.90;;;;;;5066769;27;38282;-75
2022/06/24 09:51:46;;;;;;;23.90;17.13;;;24.70;99.90;;;;;;5055802;27;38490;-75
2022/06/24 09:54:14;;;;;;;27.13;20.23;;;24.40;99.90;;;;;;5081472;27;38612;-75
2022/06/24 09:56:44;;;;;;;26.00;23.20;;;24.00;99.90;;;;;;5081681;27;39520;-75
2022/06/24 10:02:00;;;;;;;23.95;20.75;;;23.20;99.90;;;;;;5069818;27;38296;-75
2022/06/24 10:04:28;;;;;;;23.30;18.70;;;23.00;99.90;;;;;;5060583;28;41493;-76
2022/06/24 10:06:56;;;;;;;22.90;19.67;;;23.30;99.90;;;;;;5060662;27;38940;-75
2022/06/24 10:09:25;;;;;;;24.83;20.52;;;23.30;99.90;;;;;;5070168;27;39477;-76
2022/06/24 10:11:53;;;;;;;25.02;19.98;;;23.20;99.90;;;;;;5092163;27;38763;-76
2022/06/24 10:14:20;;;;;;;21.17;15.10;;;23.50;99.90;;;;;;5043615;28;40581;-76
2022/06/24 10:16:48;;;;;;;16.23;11.52;;;24.00;99.90;;;;;;5077043;28;39079;-76
2022/06/24 10:19:17;;;;;;;14.10;11.52;;;24.40;99.90;;;;;;5062102;27;40240;-74
2022/06/24 10:21:46;;;;;;;12.43;10.93;;;24.30;99.90;;;;;;5061984;27;37238;-75
2022/06/24 10:24:16;;;;;;;14.73;12.13;;;24.00;99.90;;;;;;5086033;27;40525;-74
2022/06/24 10:26:46;;;;;;;14.43;12.60;;;23.60;99.90;;;;;;5049454;28;39562;-76
2022/06/24 10:29:20;;;;;;;14.73;11.85;;;23.20;99.90;;;;;;5064150;28;39297;-76
2022/06/24 10:31:49;;;;;;;15.55;12.27;;;22.90;99.90;;;;;;5081000;28;38230;-76
2022/06/24 10:34:20;;;;;;;15.35;12.45;;;22.60;99.90;;;;;;5066289;27;38336;-76
2022/06/24 10:36:47;;;;;;;15.80;11.67;;;22.40;99.90;;;;;;5066044;27;38660;-76
2022/06/24 10:39:22;;;;;;;17.15;14.05;;;22.10;99.90;;;;;;5064258;27;38770;-77
2022/06/24 10:42:08;;;;;;;15.70;14.10;;;21.80;99.90;;;;;;5065531;27;36797;-77
2022/06/24 10:44:50;;;;;;;14.10;12.32;;;21.50;99.90;;;;;;5063343;27;48787;-76
2022/06/24 10:47:16;;;;;;;13.40;11.25;;;21.30;99.90;;;;;;5061522;27;39798;-76
2022/06/24 10:49:54;;;;;;;11.57;9.82;;;21.20;99.90;;;;;;5065858;27;38094;-78
2022/06/24 10:52:33;;;;;;;10.30;8.60;;;21.10;99.90;;;;;;5044651;27;37403;-76
2022/06/24 10:55:18;;;;;;;11.88;8.95;;;21.00;99.90;;;;;;5050344;28;39199;-76
2022/06/24 10:57:50;;;;;;;9.10;8.18;;;21.10;99.90;;;;;;5080579;28;48649;-75
2022/06/24 11:00:23;;;;;;;11.85;8.23;;;21.10;99.90;;;;;;5060826;28;38479;-76
2022/06/24 11:03:12;;;;;;;9.18;7.93;;;21.30;99.90;;;;;;5054990;28;36120;-76
2022/06/24 11:05:40;;;;;;;11.80;6.97;;;21.30;99.90;;;;;;5062565;28;47347;-76
2022/06/24 11:08:20;;;;;;;9.70;7.10;;;21.30;99.90;;;;;;5065000;27;38769;-76
2022/06/24 11:10:47;;;;;;;11.10;7.20;;;21.30;99.90;;;;;;5081098;27;38880;-76
2022/06/24 11:13:14;;;;;;;8.60;6.72;;;21.40;99.90;;;;;;5066005;27;37083;-76
2022/06/24 11:15:48;;;;;;;6.97;6.28;;;21.60;99.90;;;;;;5062760;27;39143;-76
2022/06/24 11:18:24;;;;;;;6.78;5.75;;;21.90;99.90;;;;;;5064961;27;38600;-76
2022/06/24 11:20:55;;;;;;;6.85;5.03;;;22.20;99.90;;;;;;5064429;27;38776;-76
2022/06/24 11:23:24;;;;;;;7.03;5.30;;;22.30;99.90;;;;;;5051907;28;37271;-76
2022/06/24 11:26:06;;;;;;;7.95;4.75;;;22.30;99.90;;;;;;5044144;28;39231;-76
2022/06/24 11:28:35;;;;;;;6.30;4.80;;;22.80;99.90;;;;;;5062898;28;47620;-76
2022/06/24 11:31:25;;;;;;;6.97;5.57;;;23.60;99.90;;;;;;5075676;28;37746;-75
2022/06/24 11:34:08;;;;;;;7.63;6.00;;;23.90;99.90;;;;;;5080423;28;36121;-76
2022/06/24 11:36:36;;;;;;;5.53;4.97;;;23.90;99.90;;;;;;5073851;28;47303;-76
2022/06/24 11:39:07;;;;;;;6.45;4.05;;;24.20;99.90;;;;;;5066748;27;38498;-76
2022/06/24 11:41:45;;;;;;;6.20;3.88;;;24.20;99.90;;;;;;5064831;27;37903;-76
2022/06/24 11:44:11;;;;;;;5.95;4.53;;;24.20;99.90;;;;;;5063189;27;36795;-75
2022/06/24 11:46:37;;;;;;;6.38;4.25;;;23.90;99.90;;;;;;5061058;28;39365;-75
2022/06/24 11:49:14;;;;;;;5.90;3.05;;;23.80;99.90;;;;;;5064796;27;39628;-75
2022/06/24 11:51:44;;;;;;;4.38;2.80;;;23.30;99.90;;;;;;5064115;27;39137;-75
2022/06/24 11:54:11;;;;;;;6.28;4.40;;;23.10;99.90;;;;;;5063165;27;36350;-75
2022/06/24 11:56:42;;;;;;;7.60;5.55;;;23.20;99.90;;;;;;5064688;28;38882;-76
2022/06/24 11:59:11;;;;;;;5.88;4.57;;;22.90;99.90;;;;;;5062950;27;38884;-75
2022/06/24 12:01:38;;;;;;;5.57;5.07;;;22.90;99.90;;;;;;5098971;27;38534;-75
2022/06/24 12:04:10;;;;;;;6.57;5.57;;;23.00;99.90;;;;;;5066149;27;37134;-75
2022/06/24 12:06:37;;;;;;;10.57;7.00;;;23.00;99.90;;;;;;5062159;28;40768;-76
2022/06/24 12:09:04;;;;;;;7.72;6.55;;;22.90;99.90;;;;;;5061739;27;40525;-76
2022/06/24 12:11:39;;;;;;;10.30;7.53;;;22.80;99.90;;;;;;5060290;28;39135;-76
2022/06/24 12:14:08;;;;;;;9.02;6.72;;;22.80;99.90;;;;;;5058498;28;37253;-76
2022/06/24 12:16:57;;;;;;;10.77;7.43;;;23.30;99.90;;;;;;5050693;28;37773;-76
2022/06/24 12:19:24;;;;;;;8.63;6.68;;;23.90;99.90;;;;;;5043693;28;39382;-76
2022/06/24 12:22:00;;;;;;;6.70;5.68;;;24.00;99.90;;;;;;5051649;28;37503;-76
2022/06/24 12:24:26;;;;;;;9.32;5.68;;;24.00;99.90;;;;;;5076903;27;38842;-75
2022/06/24 12:26:54;;;;;;;9.10;4.80;;;23.70;99.90;;;;;;5060780;27;39237;-76
2022/06/24 12:29:31;;;;;;;4.82;4.30;;;23.60;99.90;;;;;;5061338;28;38363;-75
2022/06/24 12:31:58;;;;;;;7.10;5.10;;;23.70;99.90;;;;;;5076116;28;40014;-75
2022/06/24 12:34:33;;;;;;;7.00;5.70;;;23.60;99.90;;;;;;5060313;27;39985;-76
2022/06/24 12:37:08;;;;;;;7.75;5.47;;;23.50;99.90;;;;;;5064031;27;40027;-75
2022/06/24 12:39:43;;;;;;;4.88;4.00;;;23.60;99.90;;;;;;5052222;27;48213;-75
2022/06/24 12:42:17;;;;;;;5.65;4.03;;;23.80;99.90;;;;;;5040973;28;37359;-75
2022/06/24 12:44:44;;;;;;;5.70;4.43;;;23.80;99.90;;;;;;5043056;28;37053;-75
2022/06/24 12:52:57;;;;;;;6.40;3.88;;;22.80;99.90;;;;;;5057143;28;49239;-76
2022/06/24 12:55:23;;;;;;;6.45;4.28;;;22.50;99.90;;;;;;5063509;27;37350;-76
2022/06/24 12:57:49;;;;;;;6.43;4.05;;;22.40;99.90;;;;;;5063625;28;37785;-75